createdAt,value
2018-11-13T00:01:58.293Z,36.33
2018-11-13T00:04:32.337Z,40.52
2018-11-13T00:07:06.569Z,141.95
2018-11-13T00:09:40.615Z,32.75
2018-11-13T00:12:14.757Z,42.05
2018-11-13T00:14:48.770Z,43.23
2018-11-13T00:17:22.741Z,55.58
2018-11-13T00:19:56.665Z,39.20
2018-11-13T00:22:30.721Z,75.83
2018-11-13T00:25:04.704Z,41.55
2018-11-13T00:27:38.718Z,46.48
2018-11-13T00:30:14.912Z,49.90
2018-11-13T00:32:49.047Z,44.67
2018-11-13T00:35:23.477Z,38.48
2018-11-13T00:37:57.511Z,64.72
2018-11-13T00:40:31.432Z,41.75
2018-11-13T00:43:05.433Z,46.48
2018-11-13T00:45:39.428Z,40.45
2018-11-13T00:48:13.335Z,60.58
2018-11-13T00:50:47.252Z,62.95
2018-11-13T00:53:21.289Z,94.45
2018-11-13T00:55:55.211Z,143.37
2018-11-13T00:58:29.189Z,55.20
2018-11-13T01:01:03.182Z,43.02
2018-11-13T01:03:37.236Z,135.90
2018-11-13T01:06:11.142Z,43.20
2018-11-13T01:08:45.090Z,65.83
2018-11-13T01:11:19.000Z,40.28
2018-11-13T01:13:52.999Z,43.68
2018-11-13T01:16:26.922Z,46.60
2018-11-13T01:19:00.900Z,40.38
2018-11-13T01:21:34.849Z,36.20
2018-11-13T01:24:08.880Z,40.23
2018-11-13T01:26:42.808Z,40.87
2018-11-13T01:29:16.778Z,37.93
2018-11-13T01:31:50.711Z,64.53
2018-11-13T01:34:24.757Z,37.38
2018-11-13T01:36:58.690Z,37.93
2018-11-13T01:39:32.634Z,53.45
2018-11-13T01:42:06.956Z,49.95
2018-11-13T01:44:40.926Z,59.80
2018-11-13T01:47:14.898Z,107.27
2018-11-13T01:49:48.828Z,48.48
2018-11-13T01:52:22.766Z,66.45
2018-11-13T01:54:56.947Z,54.18
2018-11-13T01:57:30.946Z,77.32
2018-11-13T02:00:05.482Z,68.00
2018-11-13T02:02:39.415Z,41.55
2018-11-13T02:05:13.474Z,80.35
2018-11-13T02:07:47.604Z,74.70
2018-11-13T02:10:21.912Z,244.28
2018-11-13T02:12:55.922Z,50.98
2018-11-13T02:15:30.137Z,231.13
2018-11-13T02:18:04.157Z,53.55
2018-11-13T02:20:38.310Z,93.33
2018-11-13T02:23:12.313Z,99.67
2018-11-13T02:25:46.454Z,54.48
2018-11-13T02:28:20.431Z,55.60
2018-11-13T02:30:54.460Z,121.73
2018-11-13T02:33:28.557Z,87.17
2018-11-13T02:36:02.595Z,78.52
2018-11-13T02:38:36.571Z,69.00
2018-11-13T02:41:10.586Z,43.97
2018-11-13T02:43:44.627Z,58.75
2018-11-13T02:46:18.648Z,285.10
2018-11-13T02:48:52.785Z,128.57
2018-11-13T02:51:27.130Z,96.45
2018-11-13T02:54:01.148Z,48.20
2018-11-13T02:56:35.725Z,50.87
2018-11-13T02:59:09.901Z,207.07
2018-11-13T03:01:44.017Z,45.23
2018-11-13T03:04:18.727Z,45.25
2018-11-13T03:06:52.774Z,63.05
2018-11-13T03:09:26.825Z,50.35
2018-11-13T03:12:00.968Z,69.37
2018-11-13T03:14:35.067Z,61.58
2018-11-13T03:17:09.117Z,60.98
2018-11-13T03:19:43.114Z,49.05
2018-11-13T03:22:17.378Z,37.67
2018-11-13T03:24:51.413Z,44.18
2018-11-13T03:27:25.460Z,51.15
2018-11-13T03:29:59.459Z,68.60
2018-11-13T03:32:33.581Z,110.87
2018-11-13T03:35:07.618Z,67.13
2018-11-13T03:37:41.756Z,230.85
2018-11-13T03:40:16.107Z,77.03
2018-11-13T03:42:50.658Z,44.55
2018-11-13T03:45:24.671Z,56.47
2018-11-13T03:47:58.765Z,83.40
2018-11-13T03:50:32.762Z,130.40
2018-11-13T03:53:06.807Z,78.30
2018-11-13T03:55:40.980Z,91.93
2018-11-13T03:58:15.045Z,224.90
2018-11-13T04:00:49.079Z,198.53
2018-11-13T04:03:23.106Z,69.62
2018-11-13T04:05:57.109Z,104.63
2018-11-13T04:08:31.253Z,69.67
2018-11-13T04:11:05.627Z,236.20
2018-11-13T04:13:39.703Z,228.60
2018-11-13T04:16:13.793Z,113.80
2018-11-13T04:18:47.928Z,163.05
2018-11-13T04:21:21.917Z,60.60
2018-11-13T04:23:55.959Z,80.67
2018-11-13T04:26:29.953Z,51.80
2018-11-13T04:29:04.142Z,148.55
2018-11-13T04:31:38.155Z,76.28
2018-11-13T04:34:12.204Z,62.73
2018-11-13T04:36:46.218Z,57.45
2018-11-13T04:39:20.463Z,59.25
2018-11-13T04:41:54.447Z,81.67
2018-11-13T04:44:28.739Z,47.73
2018-11-13T04:47:02.897Z,104.53
2018-11-13T04:49:36.941Z,68.90
2018-11-13T04:52:10.960Z,89.42
2018-11-13T04:54:45.029Z,55.43
2018-11-13T04:57:19.066Z,125.22
2018-11-13T04:59:53.250Z,56.33
2018-11-13T05:02:27.281Z,116.25
2018-11-13T05:05:01.316Z,82.85
2018-11-13T05:07:35.344Z,164.37
2018-11-13T05:10:11.707Z,65.70
2018-11-13T05:12:46.391Z,62.70
2018-11-13T05:15:20.499Z,296.80
2018-11-13T05:17:54.548Z,225.70
2018-11-13T05:20:28.588Z,85.15
2018-11-13T05:23:02.772Z,51.42
2018-11-13T05:25:36.817Z,139.70
2018-11-13T05:28:10.830Z,55.37
2018-11-13T05:30:44.855Z,150.12
2018-11-13T05:33:18.889Z,88.85
2018-11-13T05:35:52.985Z,149.07
2018-11-13T05:38:26.984Z,313.87
2018-11-13T05:41:01.004Z,192.82
2018-11-13T05:43:35.050Z,58.73
2018-11-13T05:46:09.127Z,61.00
2018-11-13T05:48:43.131Z,73.45
2018-11-13T05:51:17.250Z,336.00
2018-11-13T05:53:51.245Z,63.50
2018-11-13T05:56:25.301Z,56.73
2018-11-13T05:58:59.354Z,97.33
2018-11-13T06:01:33.473Z,48.35
2018-11-13T06:04:07.480Z,215.00
2018-11-13T06:06:41.544Z,64.85
2018-11-13T06:09:15.558Z,54.60
2018-11-13T06:11:49.691Z,59.85
2018-11-13T06:14:23.668Z,53.50
2018-11-13T06:16:57.736Z,61.45
2018-11-13T06:19:31.738Z,152.72
2018-11-13T06:22:06.190Z,60.92
2018-11-13T06:24:40.203Z,80.95
2018-11-13T06:27:14.257Z,90.17
2018-11-13T06:29:48.288Z,60.92
2018-11-13T06:32:22.461Z,74.97
2018-11-13T06:34:56.556Z,153.67
2018-11-13T06:37:30.600Z,69.47
2018-11-13T06:40:04.980Z,61.98
2018-11-13T06:42:39.428Z,207.87
2018-11-13T06:45:18.529Z,86.00
2018-11-13T06:47:53.047Z,68.85
2018-11-13T06:50:27.227Z,56.80
2018-11-13T06:53:01.321Z,58.13
2018-11-13T06:55:36.449Z,97.37
2018-11-13T06:58:10.487Z,56.83
2018-11-13T07:00:44.522Z,123.72
2018-11-13T07:03:18.560Z,319.93
2018-11-13T07:05:52.574Z,72.32
2018-11-13T07:08:26.644Z,65.47
2018-11-13T07:11:00.713Z,66.87
2018-11-13T07:13:34.989Z,170.38
2018-11-13T07:16:09.002Z,94.52
2018-11-13T07:18:43.038Z,74.77
2018-11-13T07:21:17.045Z,63.13
2018-11-13T07:23:51.089Z,60.17
2018-11-13T07:26:25.085Z,107.85
2018-11-13T07:28:59.370Z,99.47
2018-11-13T07:31:33.452Z,64.72
2018-11-13T07:34:07.664Z,202.18
2018-11-13T07:36:41.674Z,76.72
2018-11-13T07:39:15.720Z,86.25
2018-11-13T07:41:50.739Z,82.20
2018-11-13T07:44:24.865Z,88.55
2018-11-13T07:46:58.959Z,108.22
2018-11-13T07:49:32.968Z,99.58
2018-11-13T07:52:07.037Z,74.90
2018-11-13T07:54:41.106Z,114.50
2018-11-13T07:57:15.113Z,80.77
2018-11-13T07:59:49.239Z,106.25
2018-11-13T08:02:23.260Z,145.80
2018-11-13T08:04:57.281Z,161.47
2018-11-13T08:07:31.279Z,79.00
2018-11-13T08:10:05.692Z,94.25
2018-11-13T08:12:39.709Z,223.18
2018-11-13T08:15:15.261Z,123.53
2018-11-13T08:17:49.320Z,170.45
2018-11-13T08:20:23.350Z,85.07
2018-11-13T08:22:57.347Z,127.85
2018-11-13T08:25:31.516Z,143.93
2018-11-13T08:28:05.728Z,71.50
2018-11-13T08:30:39.724Z,94.55
2018-11-13T08:33:13.749Z,68.28
2018-11-13T08:35:47.858Z,88.75
2018-11-13T08:38:21.957Z,91.37
2018-11-13T08:40:56.002Z,132.60
2018-11-13T08:43:30.081Z,71.77
2018-11-13T08:46:04.491Z,73.67
2018-11-13T08:48:38.501Z,193.90
2018-11-13T08:51:12.632Z,91.53
2018-11-13T08:53:46.642Z,86.42
2018-11-13T08:56:21.696Z,105.12
2018-11-13T08:58:56.852Z,85.57
2018-11-13T09:01:31.148Z,118.47
2018-11-13T09:04:05.610Z,162.55
2018-11-13T09:06:39.770Z,77.30
2018-11-13T09:09:14.806Z,119.30
2018-11-13T09:11:49.037Z,67.97
2018-11-13T09:14:22.983Z,87.37
2018-11-13T09:16:57.096Z,58.90
2018-11-13T09:19:31.273Z,75.17
2018-11-13T09:22:05.455Z,65.67
2018-11-13T09:24:39.447Z,66.60
2018-11-13T09:27:13.769Z,60.25
2018-11-13T09:29:47.798Z,51.00
2018-11-13T09:32:21.855Z,62.35
2018-11-13T09:34:55.861Z,60.88
2018-11-13T09:37:29.998Z,57.90
2018-11-13T09:40:04.064Z,53.30
2018-11-13T09:42:38.378Z,44.18
2018-11-13T09:45:13.285Z,44.93
2018-11-13T09:47:47.481Z,64.40
2018-11-13T09:50:22.126Z,46.88
2018-11-13T09:52:56.199Z,44.35
2018-11-13T09:55:30.234Z,49.33
2018-11-13T09:58:04.294Z,42.88
2018-11-13T10:00:38.413Z,38.10
2018-11-13T10:03:13.116Z,33.08
2018-11-13T10:05:46.671Z,50.70
2018-11-13T10:08:20.719Z,89.50
2018-11-13T10:10:54.770Z,29.77
2018-11-13T10:13:28.900Z,40.75
2018-11-13T10:16:02.886Z,30.40
2018-11-13T10:18:38.038Z,26.60
2018-11-13T10:21:12.048Z,29.87
2018-11-13T10:23:46.084Z,33.02
2018-11-13T10:26:20.228Z,29.67
2018-11-13T10:28:54.261Z,24.60
2018-11-13T10:31:28.751Z,26.25
2018-11-13T10:34:02.941Z,21.05
2018-11-13T10:36:36.970Z,19.80
2018-11-13T10:39:11.440Z,20.00
2018-11-13T10:41:45.425Z,18.90
2018-11-13T10:44:19.571Z,17.67
2018-11-13T10:46:53.594Z,21.30
2018-11-13T10:49:27.933Z,18.90
2018-11-13T10:52:01.955Z,14.73
2018-11-13T10:54:36.240Z,14.68
2018-11-13T10:57:10.241Z,14.53
2018-11-13T10:59:44.368Z,16.32
2018-11-13T11:02:23.417Z,11.83
2018-11-13T11:05:01.539Z,11.38
2018-11-13T11:07:35.587Z,11.88
2018-11-13T11:10:09.724Z,11.22
2018-11-13T11:12:43.854Z,12.07
2018-11-13T11:15:17.941Z,11.15
2018-11-13T11:17:52.269Z,11.40
2018-11-13T11:20:26.326Z,11.33
2018-11-13T11:23:00.431Z,12.75
2018-11-13T11:25:34.623Z,12.85
2018-11-13T11:28:08.842Z,10.10
2018-11-13T11:30:42.933Z,10.05
2018-11-13T11:33:16.943Z,11.40
2018-11-13T11:35:51.155Z,14.93
2018-11-13T11:38:25.211Z,8.55
2018-11-13T11:40:59.294Z,12.68
2018-11-13T11:43:33.315Z,9.33
2018-11-13T11:46:07.392Z,8.50
2018-11-13T11:48:41.425Z,12.47
2018-11-13T11:51:15.468Z,7.00
2018-11-13T11:53:49.543Z,8.63
2018-11-13T11:56:23.586Z,10.18
2018-11-13T11:58:57.654Z,8.20
2018-11-13T12:01:31.788Z,7.20
2018-11-13T12:04:06.234Z,5.92
2018-11-13T12:06:40.512Z,12.58
2018-11-13T12:09:14.548Z,13.62
2018-11-13T12:11:48.597Z,6.03
2018-11-13T12:14:22.714Z,4.85
2018-11-13T12:16:56.760Z,8.18
2018-11-13T12:19:30.813Z,5.20
2018-11-13T12:22:04.939Z,6.05
2018-11-13T12:24:38.928Z,4.72
2018-11-13T12:27:13.018Z,9.03
2018-11-13T12:29:47.019Z,4.90
2018-11-13T12:32:21.075Z,4.45
2018-11-13T12:34:55.105Z,7.80
2018-11-13T12:37:29.137Z,6.75
2018-11-13T12:40:03.144Z,6.15
2018-11-13T12:42:37.211Z,8.55
2018-11-13T12:45:11.634Z,8.03
2018-11-13T12:47:45.826Z,4.85
2018-11-13T12:50:20.662Z,4.35
2018-11-13T12:52:54.728Z,4.60
2018-11-13T12:55:28.785Z,8.78
2018-11-13T12:58:02.807Z,5.75
2018-11-13T13:00:36.808Z,6.45
2018-11-13T13:03:10.875Z,4.67
2018-11-13T13:05:44.882Z,3.85
2018-11-13T13:08:18.927Z,6.28
2018-11-13T13:10:52.945Z,4.65
2018-11-13T13:13:27.020Z,3.55
2018-11-13T13:16:01.022Z,8.98
2018-11-13T13:18:35.038Z,4.03
2018-11-13T13:21:09.054Z,3.98
2018-11-13T13:23:43.186Z,8.63
2018-11-13T13:26:17.178Z,6.17
2018-11-13T13:28:51.235Z,3.52
2018-11-13T13:31:25.467Z,7.78
2018-11-13T13:33:59.758Z,6.62
2018-11-13T13:36:33.861Z,4.12
2018-11-13T13:39:09.384Z,8.45
2018-11-13T13:41:43.382Z,8.60
2018-11-13T13:44:17.495Z,7.33
2018-11-13T13:46:51.509Z,3.80
2018-11-13T13:49:25.622Z,4.12
2018-11-13T13:51:59.623Z,6.50
2018-11-13T13:54:33.690Z,6.58
2018-11-13T13:57:07.777Z,4.10
2018-11-13T13:59:41.859Z,6.30
2018-11-13T14:02:15.873Z,3.27
2018-11-13T14:04:50.502Z,6.22
2018-11-13T14:07:24.559Z,6.37
2018-11-13T14:09:58.577Z,9.70
2018-11-13T14:12:32.622Z,8.88
2018-11-13T14:15:07.814Z,5.62
2018-11-13T14:17:42.293Z,6.67
2018-11-13T14:20:17.483Z,4.92
2018-11-13T14:22:51.615Z,7.12
2018-11-13T14:25:25.630Z,3.25
2018-11-13T14:28:00.076Z,6.00
2018-11-13T14:37:39.707Z,6.33
2018-11-13T14:40:21.445Z,5.67
2018-11-13T14:42:55.475Z,5.80
2018-11-13T14:45:29.911Z,3.60
2018-11-13T14:48:04.059Z,9.10
2018-11-13T14:50:38.616Z,6.10
2018-11-13T14:53:13.253Z,6.17
2018-11-13T14:55:47.293Z,6.37
2018-11-13T14:58:21.420Z,6.45
2018-11-13T15:00:55.480Z,4.37
2018-11-13T15:03:29.477Z,5.08
2018-11-13T15:06:03.509Z,6.15
2018-11-13T15:08:37.500Z,3.65
2018-11-13T15:11:11.638Z,5.78
2018-11-13T15:13:45.631Z,4.22
2018-11-13T15:16:20.793Z,5.03
2018-11-13T15:18:54.803Z,6.55
2018-11-13T15:21:28.911Z,3.98
2018-11-13T15:24:02.916Z,5.72
2018-11-13T15:26:37.087Z,4.12
2018-11-13T15:29:11.116Z,7.95
2018-11-13T15:31:45.224Z,5.13
2018-11-13T15:34:19.246Z,5.20
2018-11-13T15:36:53.280Z,5.17
2018-11-13T15:39:27.285Z,5.37
2018-11-13T15:42:01.318Z,5.83
2018-11-13T15:44:35.458Z,3.67
2018-11-13T15:47:09.536Z,4.33
2018-11-13T15:49:43.552Z,4.75
2018-11-13T15:52:17.704Z,7.63
2018-11-13T15:54:51.637Z,4.60
2018-11-13T15:57:25.750Z,3.05
2018-11-13T15:59:59.773Z,4.30
2018-11-13T16:02:33.934Z,4.33
2018-11-13T16:05:25.532Z,3.10
2018-11-13T16:08:00.569Z,4.10
2018-11-13T16:10:34.598Z,4.13
2018-11-13T16:13:08.852Z,2.47
2018-11-13T16:15:43.317Z,7.63
2018-11-13T16:18:18.817Z,4.50
2018-11-13T16:20:52.862Z,7.03
2018-11-13T16:23:26.893Z,6.50
2018-11-13T16:26:00.875Z,6.33
2018-11-13T16:28:34.900Z,6.00
2018-11-13T16:31:08.909Z,6.47
2018-11-13T16:33:42.910Z,5.50
2018-11-13T16:36:17.038Z,6.27
2018-11-13T16:38:51.049Z,6.67
2018-11-13T16:41:25.082Z,6.30
2018-11-13T16:43:59.170Z,6.83
2018-11-13T16:46:33.206Z,5.90
2018-11-13T16:49:11.482Z,8.33
2018-11-13T16:51:47.924Z,4.57
2018-11-13T16:54:23.779Z,7.10
2018-11-13T16:56:58.770Z,7.80
2018-11-13T16:59:32.867Z,5.10
2018-11-13T17:02:07.021Z,5.53
2018-11-13T17:04:41.076Z,4.97
2018-11-13T17:07:15.193Z,5.37
2018-11-13T17:09:49.244Z,7.53
2018-11-13T17:12:23.364Z,7.00
2018-11-13T17:14:57.420Z,8.53
2018-11-13T17:17:31.556Z,5.83
2018-11-13T17:20:06.316Z,4.67
2018-11-13T17:22:41.114Z,4.90
2018-11-13T17:25:16.646Z,8.67
2018-11-13T17:27:51.824Z,6.03
2018-11-13T17:30:27.858Z,5.43
2018-11-13T17:33:03.188Z,8.27
2018-11-13T17:35:37.316Z,9.33
2018-11-13T17:38:11.493Z,7.30
2018-11-13T17:40:45.555Z,9.30
2018-11-13T17:43:20.679Z,8.20
2018-11-13T17:45:54.762Z,9.67
2018-11-13T17:48:28.788Z,7.20
2018-11-13T17:51:02.876Z,5.47
2018-11-13T17:53:36.940Z,6.73
2018-11-13T17:56:11.015Z,3.87
2018-11-13T17:58:45.882Z,5.43
2018-11-13T18:01:19.994Z,10.93
2018-11-13T18:03:54.019Z,10.93
2018-11-13T18:06:28.156Z,5.17
2018-11-13T18:09:02.224Z,7.60
2018-11-13T18:11:36.263Z,4.77
2018-11-13T18:14:11.184Z,9.67
2018-11-13T18:16:47.188Z,9.33
2018-11-13T18:19:22.791Z,8.57
2018-11-13T18:21:57.013Z,5.33
2018-11-13T18:24:31.110Z,6.57
2018-11-13T18:27:05.223Z,10.50
2018-11-13T18:29:39.322Z,4.20
2018-11-13T18:32:13.386Z,6.47
2018-11-13T18:34:47.648Z,7.20
2018-11-13T18:37:21.821Z,5.77
2018-11-13T18:39:56.007Z,11.70
2018-11-13T18:42:30.094Z,7.13
2018-11-13T18:45:04.323Z,5.03
2018-11-13T18:47:38.550Z,7.63
2018-11-13T18:50:16.185Z,6.47
2018-11-13T18:52:50.294Z,9.77
2018-11-13T18:55:24.655Z,5.20
2018-11-13T18:57:59.029Z,6.57
2018-11-13T19:00:34.731Z,5.20
2018-11-13T19:03:10.289Z,5.60
2018-11-13T19:05:44.440Z,11.33
2018-11-13T19:08:18.451Z,6.57
2018-11-13T19:10:52.623Z,5.50
2018-11-13T19:13:27.963Z,5.03
2018-11-13T19:16:04.278Z,9.80
2018-11-13T19:18:38.833Z,6.53
2018-11-13T19:21:12.950Z,5.93
2018-11-13T19:23:47.055Z,6.40
2018-11-13T19:26:21.157Z,5.63
2018-11-13T19:28:55.213Z,5.17
2018-11-13T19:31:29.365Z,6.70
2018-11-13T19:34:03.380Z,9.07
2018-11-13T19:36:37.585Z,8.00
2018-11-13T19:39:13.336Z,12.13
2018-11-13T19:41:47.671Z,10.03
2018-11-13T19:44:21.791Z,8.93
2018-11-13T19:46:56.113Z,9.63
2018-11-13T19:49:30.320Z,6.60
2018-11-13T19:52:04.370Z,7.27
2018-11-13T19:54:38.566Z,7.47
2018-11-13T19:57:12.741Z,9.50
2018-11-13T19:59:46.878Z,7.23
2018-11-13T20:02:21.099Z,7.47
2018-11-13T20:04:55.211Z,9.23
2018-11-13T20:07:29.262Z,8.33
2018-11-13T20:10:03.302Z,6.50
2018-11-13T20:12:37.429Z,6.87
2018-11-13T20:15:12.523Z,9.07
2018-11-13T20:17:46.685Z,8.50
2018-11-13T20:20:23.057Z,8.67
2018-11-13T20:22:59.755Z,13.73
2018-11-13T20:25:34.735Z,8.03
2018-11-13T20:28:10.156Z,8.07
2018-11-13T20:30:44.423Z,11.57
2018-11-13T20:33:18.453Z,7.20
2018-11-13T20:35:52.532Z,8.77
2018-11-13T20:38:26.663Z,11.17
2018-11-13T20:41:00.904Z,9.23
2018-11-13T20:43:35.226Z,8.50
2018-11-13T20:46:09.327Z,8.83
2018-11-13T20:48:43.377Z,9.27
2018-11-13T20:51:17.651Z,10.37
2018-11-13T20:53:51.757Z,10.80
2018-11-13T20:56:25.803Z,10.33
2018-11-13T20:58:59.971Z,12.50
2018-11-13T21:01:33.976Z,10.70
2018-11-13T21:04:08.030Z,9.90
2018-11-13T21:06:42.207Z,12.23
2018-11-13T21:09:16.367Z,14.77
2018-11-13T21:11:50.413Z,11.37
2018-11-13T21:14:24.456Z,13.60
2018-11-13T21:16:58.651Z,13.83
2018-11-13T21:19:32.677Z,12.13
2018-11-13T21:22:06.766Z,10.47
2018-11-13T21:24:40.794Z,9.37
2018-11-13T21:27:14.810Z,9.90
2018-11-13T21:29:49.034Z,9.77
2018-11-13T21:32:23.004Z,9.63
2018-11-13T21:34:57.046Z,10.70
2018-11-13T21:37:31.266Z,11.30
2018-11-13T21:40:05.659Z,11.30
2018-11-13T21:42:39.680Z,10.67
2018-11-13T21:45:14.292Z,9.83
2018-11-13T21:47:48.376Z,8.60
2018-11-13T21:50:26.065Z,9.70
2018-11-13T21:53:01.110Z,8.93
2018-11-13T21:55:35.555Z,10.57
2018-11-13T21:58:09.511Z,11.43
2018-11-13T22:00:43.518Z,9.63
2018-11-13T22:03:17.523Z,11.70
2018-11-13T22:05:51.695Z,12.03
2018-11-13T22:08:25.832Z,9.90
2018-11-13T22:10:59.881Z,11.50
2018-11-13T22:13:33.934Z,13.87
2018-11-13T22:16:08.060Z,14.20
2018-11-13T22:18:42.058Z,14.17
2018-11-13T22:21:16.305Z,9.37
2018-11-13T22:23:50.308Z,10.63
2018-11-13T22:26:24.501Z,17.50
2018-11-13T22:28:59.096Z,10.30
2018-11-13T22:31:33.797Z,14.70
2018-11-13T22:34:07.983Z,12.50
2018-11-13T22:36:42.051Z,13.77
2018-11-13T22:39:16.145Z,13.13
2018-11-13T22:41:50.326Z,13.57
2018-11-13T22:44:24.389Z,14.03
2018-11-13T22:46:58.436Z,11.77
2018-11-13T22:49:32.458Z,13.20
2018-11-13T22:52:07.215Z,12.87
2018-11-13T22:54:41.304Z,12.77
2018-11-13T22:57:15.380Z,11.70
2018-11-13T22:59:49.431Z,13.97
2018-11-13T23:02:23.682Z,14.50
2018-11-13T23:04:57.748Z,11.93
2018-11-13T23:07:31.786Z,16.10
2018-11-13T23:10:07.578Z,14.03
2018-11-13T23:12:42.281Z,16.67
2018-11-13T23:15:17.854Z,15.87
2018-11-13T23:17:51.949Z,16.53
2018-11-13T23:20:26.032Z,16.77
2018-11-13T23:23:00.116Z,15.30
2018-11-13T23:25:34.162Z,15.00
2018-11-13T23:28:08.277Z,13.10
2018-11-13T23:30:42.351Z,17.47
2018-11-13T23:33:16.621Z,17.13
2018-11-13T23:35:50.887Z,18.47
2018-11-13T23:38:25.085Z,14.47
2018-11-13T23:40:59.232Z,16.53
2018-11-13T23:43:33.630Z,18.50
2018-11-13T23:46:08.100Z,11.40
2018-11-13T23:48:42.211Z,15.93
2018-11-13T23:51:16.316Z,16.50
2018-11-13T23:53:50.631Z,16.43
2018-11-13T23:56:24.842Z,13.40
2018-11-13T23:58:59.064Z,15.70
